LECO/LCG METAR and TAF weather

Enter ICAO airport designator
Station Type Date Time Source
LECO METAR 2019/06/19 00:30 UTC NOAA

LECO 190030Z AUTO 20006KT 9999 SCT039 17/14 Q1012


Station Type Date Time Source
LECO Decoded METAR 2019/06/19 00:30 UTC NOAA

La Coruna / Alvedro, Spain (LECO) 43-18N 008-23W 103M
Jun 18, 2019 - 08:30 PM EDT / 2019.06.19 0030 UTC
Wind: from the SSW (200 degrees) at 7 MPH (6 KT):0
Visibility: greater than 7 mile(s):0
Sky conditions: partly cloudy
Temperature: 62 F (17 C)
Dew Point: 57 F (14 C)
Relative Humidity: 82%
Pressure (altimeter): 29.88 in. Hg (1012 hPa)
ob: LECO 190030Z AUTO 20006KT 9999 SCT039 17/14 Q1012
cycle: 0

Station Type Date Time Source
LECO TAF 2019/06/18 21:27 UTC NOAA

TAF LECO 182000Z 1821/1921 21010KT 9999 FEW025 BKN035 TX17/1911Z TN14/1902Z
TEMPO 1821/1824 20015G25KT
BECMG 1908/1910 VRB05KT PROB30
TEMPO 1916/1921 3000 BR BCFG BKN005

Example: see airport list